createdAt,value
2023-07-06T00:03:09.081Z,100.0
2023-07-06T00:08:09.065Z,100.0
2023-07-06T00:13:09.061Z,100.0
2023-07-06T00:18:09.089Z,100.0
2023-07-06T00:23:09.024Z,100.0
2023-07-06T00:33:09.075Z,100.0
2023-07-06T00:38:09.046Z,100.0
2023-07-06T00:43:09.068Z,100.0
2023-07-06T00:48:09.070Z,100.0
2023-07-06T00:53:09.084Z,100.0
2023-07-06T00:58:09.078Z,100.0
2023-07-06T01:03:09.422Z,100.0
2023-07-06T01:08:09.080Z,100.0
2023-07-06T01:13:09.222Z,100.0
2023-07-06T01:18:09.088Z,100.0
2023-07-06T01:33:09.080Z,100.0
2023-07-06T01:43:09.100Z,100.0
2023-07-06T01:48:09.120Z,100.0
2023-07-06T01:58:09.062Z,100.0
2023-07-06T02:18:09.083Z,100.0
2023-07-06T02:23:09.544Z,100.0
2023-07-06T02:28:09.066Z,100.0
2023-07-06T02:48:09.140Z,100.0
2023-07-06T03:03:09.115Z,100.0
2023-07-06T03:13:09.129Z,100.0
2023-07-06T03:23:09.113Z,100.0
2023-07-06T04:18:09.180Z,100.0
2023-07-06T04:23:09.125Z,100.0
2023-07-06T04:28:09.171Z,100.0
2023-07-06T04:33:09.151Z,100.0
2023-07-06T04:43:09.161Z,100.0
2023-07-06T04:58:09.173Z,100.0
2023-07-06T05:08:09.174Z,100.0
2023-07-06T05:13:09.168Z,100.0
2023-07-06T05:23:09.152Z,100.0
2023-07-06T05:28:09.177Z,100.0
2023-07-06T05:43:09.188Z,100.0
2023-07-06T05:48:09.185Z,100.0
2023-07-06T05:53:09.183Z,100.0
2023-07-06T05:58:09.193Z,100.0
2023-07-06T06:08:09.215Z,100.0
2023-07-06T06:13:09.167Z,100.0
2023-07-06T06:18:09.233Z,100.0
2023-07-06T06:23:09.159Z,100.0
2023-07-06T06:28:09.192Z,100.0
2023-07-06T06:33:09.249Z,100.0
2023-07-06T06:38:09.181Z,100.0
2023-07-06T06:43:09.175Z,100.0
2023-07-06T06:53:09.189Z,100.0
2023-07-06T06:58:09.236Z,100.0
2023-07-06T07:03:10.083Z,100.0
2023-07-06T07:08:09.234Z,100.0
2023-07-06T07:13:09.183Z,100.0
2023-07-06T07:18:09.252Z,100.0
2023-07-06T07:23:09.190Z,100.0
2023-07-06T07:28:09.220Z,100.0
2023-07-06T07:33:09.228Z,100.0
2023-07-06T07:38:20.200Z,100.0
2023-07-06T07:43:09.989Z,100.0
2023-07-06T07:48:09.196Z,100.0
2023-07-06T07:53:09.234Z,100.0
2023-07-06T07:58:09.223Z,100.0
2023-07-06T08:03:09.319Z,100.0
2023-07-06T08:08:13.663Z,100.0
2023-07-06T08:13:09.264Z,100.0
2023-07-06T08:18:09.250Z,100.0
2023-07-06T08:23:09.213Z,100.0
2023-07-06T08:28:09.241Z,100.0
2023-07-06T08:33:09.247Z,100.0
2023-07-06T08:38:09.237Z,100.0
2023-07-06T08:43:09.311Z,100.0
2023-07-06T08:48:09.216Z,100.0
2023-07-06T08:53:09.265Z,100.0
2023-07-06T08:58:09.221Z,100.0
2023-07-06T09:08:09.236Z,100.0
2023-07-06T09:13:09.265Z,100.0
2023-07-06T09:18:09.233Z,100.0
2023-07-06T09:23:09.274Z,100.0
2023-07-06T09:28:09.332Z,100.0
2023-07-06T09:33:09.326Z,100.0
2023-07-06T09:38:09.231Z,100.0
2023-07-06T09:43:09.233Z,100.0
2023-07-06T09:48:09.236Z,100.0
2023-07-06T09:53:09.245Z,100.0
2023-07-06T09:58:09.257Z,100.0
2023-07-06T10:03:09.493Z,100.0
2023-07-06T10:08:09.245Z,100.0
2023-07-06T10:13:09.284Z,100.0
2023-07-06T10:18:09.304Z,100.0
2023-07-06T10:23:09.297Z,100.0
2023-07-06T10:28:09.274Z,100.0
2023-07-06T10:33:09.287Z,100.0
2023-07-06T10:38:09.285Z,70.8
2023-07-06T10:43:09.295Z,90.0
2023-07-06T10:48:09.308Z,72.4
2023-07-06T10:53:09.299Z,47.9
2023-07-06T10:58:09.272Z,45.1
2023-07-06T11:03:09.386Z,55.7
2023-07-06T11:08:09.259Z,74.9
2023-07-06T11:13:09.294Z,49.7
2023-07-06T11:18:09.272Z,52.1
2023-07-06T11:23:09.313Z,53.7
2023-07-06T11:28:09.276Z,48.9
2023-07-06T11:33:09.316Z,49.9
2023-07-06T11:38:09.311Z,39.5
2023-07-06T11:43:09.272Z,54.8
2023-07-06T11:48:09.358Z,50.3
2023-07-06T11:53:09.291Z,50.3
2023-07-06T11:58:09.318Z,53.1
2023-07-06T12:03:09.490Z,73.4
2023-07-06T12:08:09.290Z,77.0
2023-07-06T12:13:09.327Z,66.4
2023-07-06T12:18:09.342Z,64.5
2023-07-06T12:23:09.338Z,48.3
2023-07-06T12:28:09.287Z,57.4
2023-07-06T12:33:09.342Z,61.0
2023-07-06T12:38:09.338Z,78.0
2023-07-06T12:43:09.293Z,94.4
2023-07-06T12:48:09.415Z,92.2
2023-07-06T12:53:09.307Z,93.9
2023-07-06T12:58:09.336Z,100.0
2023-07-06T13:03:09.375Z,100.0
2023-07-06T13:08:09.356Z,100.0
2023-07-06T13:13:09.316Z,100.0
2023-07-06T13:18:09.406Z,100.0
2023-07-06T13:23:09.315Z,100.0
2023-07-06T13:28:09.389Z,100.0
2023-07-06T13:33:09.370Z,100.0
2023-07-06T13:38:09.347Z,100.0
2023-07-06T13:43:09.335Z,98.4
2023-07-06T13:48:09.383Z,58.9
2023-07-06T13:53:09.354Z,38.9
2023-07-06T13:58:09.383Z,37.4
2023-07-06T14:03:09.460Z,40.3
2023-07-06T14:08:10.318Z,35.6
2023-07-06T14:13:09.358Z,34.7
2023-07-06T14:18:09.403Z,37.5
2023-07-06T14:23:09.355Z,47.6
2023-07-06T14:28:09.400Z,69.2
2023-07-06T14:33:11.186Z,48.7
2023-07-06T14:38:09.371Z,48.7
2023-07-06T14:43:09.429Z,61.1
2023-07-06T14:48:09.409Z,39.9
2023-07-06T14:53:09.405Z,61.9
2023-07-06T14:58:13.455Z,55.0
2023-07-06T15:03:09.479Z,55.0
2023-07-06T15:08:09.385Z,33.7
2023-07-06T15:13:09.415Z,32.0
2023-07-06T15:18:09.444Z,28.5
2023-07-06T15:23:09.412Z,32.6
2023-07-06T15:28:09.384Z,31.0
2023-07-06T15:33:09.438Z,33.3
2023-07-06T15:38:09.391Z,31.5
2023-07-06T15:43:09.436Z,29.5
2023-07-06T15:48:09.425Z,29.5
2023-07-06T15:53:09.439Z,29.4
2023-07-06T15:58:09.393Z,31.3
2023-07-06T16:03:09.552Z,32.1
2023-07-06T16:08:09.399Z,32.6
2023-07-06T16:13:09.464Z,30.9
2023-07-06T16:18:09.451Z,31.1
2023-07-06T16:23:09.464Z,37.7
2023-07-06T16:28:09.420Z,29.2
2023-07-06T16:33:09.613Z,32.2
2023-07-06T16:38:09.427Z,35.1
2023-07-06T16:43:09.555Z,43.9
2023-07-06T16:48:09.459Z,44.3
2023-07-06T16:53:09.453Z,43.2
2023-07-06T16:58:09.469Z,39.6
2023-07-06T17:03:09.633Z,39.6
2023-07-06T17:08:09.430Z,39.5
2023-07-06T17:13:09.468Z,42.6
2023-07-06T17:18:09.543Z,42.3
2023-07-06T17:23:09.461Z,39.5
2023-07-06T17:28:09.447Z,39.5
2023-07-06T17:33:09.482Z,37.8
2023-07-06T17:38:09.490Z,38.2
2023-07-06T17:43:09.455Z,42.6
2023-07-06T17:48:09.495Z,42.1
2023-07-06T17:53:09.474Z,40.8
2023-07-06T17:58:09.504Z,42.4
2023-07-06T18:03:09.450Z,42.7
2023-07-06T18:08:09.462Z,45.0
2023-07-06T18:13:09.545Z,41.7
2023-07-06T18:18:09.489Z,41.7
2023-07-06T18:23:09.490Z,38.5
2023-07-06T18:28:09.463Z,41.2
2023-07-06T18:33:09.536Z,45.8
2023-07-06T18:38:09.578Z,56.7
2023-07-06T18:43:09.478Z,56.7
2023-07-06T18:48:09.482Z,61.9
2023-07-06T18:53:09.487Z,78.0
2023-07-06T18:58:09.476Z,87.9
2023-07-06T19:03:10.881Z,100.0
2023-07-06T19:08:09.490Z,100.0
2023-07-06T19:13:09.517Z,100.0
2023-07-06T19:18:09.560Z,100.0
2023-07-06T19:23:09.506Z,100.0
2023-07-06T19:28:09.513Z,100.0
2023-07-06T19:33:09.526Z,100.0
2023-07-06T19:38:09.522Z,100.0
2023-07-06T19:43:09.514Z,100.0
2023-07-06T19:48:09.524Z,100.0
2023-07-06T19:58:09.501Z,100.0
2023-07-06T20:03:09.601Z,100.0
2023-07-06T20:08:09.506Z,100.0
2023-07-06T20:13:09.538Z,100.0
2023-07-06T20:18:09.546Z,100.0
2023-07-06T20:28:09.515Z,100.0
2023-07-06T20:33:09.582Z,100.0
2023-07-06T20:43:09.529Z,100.0
2023-07-06T20:48:09.568Z,100.0
2023-07-06T20:53:09.562Z,100.0
2023-07-06T20:58:09.565Z,100.0
2023-07-06T21:03:09.594Z,100.0
2023-07-06T21:13:09.527Z,100.0
2023-07-06T21:23:09.540Z,100.0
2023-07-06T21:28:09.561Z,100.0
2023-07-06T21:33:09.590Z,100.0
2023-07-06T21:38:09.562Z,100.0
2023-07-06T21:43:09.553Z,100.0
2023-07-06T21:48:09.582Z,100.0
2023-07-06T21:53:09.564Z,100.0
2023-07-06T21:58:09.571Z,100.0
2023-07-06T22:03:09.557Z,100.0
2023-07-06T22:08:09.581Z,100.0
2023-07-06T22:18:09.666Z,100.0
2023-07-06T22:23:09.608Z,100.0
2023-07-06T22:28:09.603Z,100.0
2023-07-06T22:33:09.572Z,100.0
2023-07-06T22:38:09.579Z,100.0
2023-07-06T22:48:09.579Z,100.0
2023-07-06T22:53:09.596Z,100.0
2023-07-06T22:58:09.586Z,100.0
2023-07-06T23:03:09.697Z,100.0
2023-07-06T23:08:09.575Z,100.0
2023-07-06T23:13:09.621Z,100.0
2023-07-06T23:18:09.589Z,100.0
2023-07-06T23:23:09.618Z,100.0
2023-07-06T23:33:09.635Z,100.0
2023-07-06T23:48:09.632Z,100.0
2023-07-06T23:53:09.667Z,100.0
